createdAt,value
2019-03-25T00:01:59.329Z,101051.36
2019-03-25T00:04:33.868Z,101058.44
2019-03-25T00:07:08.438Z,101054.73
2019-03-25T00:09:44.508Z,101047.18
2019-03-25T00:12:20.689Z,101045.34
2019-03-25T00:14:57.301Z,101042.45
2019-03-25T00:17:31.792Z,101040.85
2019-03-25T00:20:06.750Z,101037.48
2019-03-25T00:22:41.284Z,101039.25
2019-03-25T00:25:15.799Z,101032.17
2019-03-25T00:27:50.326Z,101028.59
2019-03-25T00:30:24.926Z,101028.68
2019-03-25T00:32:59.562Z,101018.89
2019-03-25T00:35:36.003Z,101017.16
2019-03-25T00:38:10.743Z,101015.25
2019-03-25T00:40:45.363Z,101004.17
2019-03-25T00:43:21.340Z,100993.12
2019-03-25T00:45:56.145Z,100995.03
2019-03-25T00:48:30.776Z,100987.89
2019-03-25T00:51:07.559Z,100978.55
2019-03-25T00:53:42.100Z,100964.25
2019-03-25T00:56:16.916Z,100963.77
2019-03-25T00:58:51.448Z,100959.89
2019-03-25T01:01:26.577Z,100957.89
2019-03-25T01:04:01.341Z,100953.14
2019-03-25T01:06:37.672Z,100953.71
2019-03-25T01:09:14.038Z,100941.77
2019-03-25T01:11:49.468Z,100942.52
2019-03-25T01:14:24.464Z,100930.65
2019-03-25T01:16:59.355Z,100928.78
2019-03-25T01:19:33.957Z,100920.98
2019-03-25T01:22:08.601Z,100913.86
2019-03-25T01:24:43.354Z,100910.36
2019-03-25T01:27:19.656Z,100904.28
2019-03-25T01:29:56.273Z,100895.61
2019-03-25T01:32:32.590Z,100887.23
2019-03-25T01:35:07.543Z,100888.14
2019-03-25T01:37:42.194Z,100883.04
2019-03-25T01:40:17.027Z,100870.61
2019-03-25T01:42:51.707Z,100866.98
2019-03-25T01:45:26.167Z,100853.27
2019-03-25T01:48:00.803Z,100846.33
2019-03-25T01:50:35.438Z,100842.99
2019-03-25T01:53:10.398Z,100836.08
2019-03-25T01:55:45.298Z,100837.37
2019-03-25T01:58:20.193Z,100827.38
2019-03-25T02:00:56.493Z,100810.39
2019-03-25T02:03:31.226Z,100808.08
2019-03-25T02:06:05.763Z,100792.96
2019-03-25T02:08:40.674Z,100796.45
2019-03-25T02:11:16.753Z,100800.67
2019-03-25T02:13:51.365Z,100791.45
2019-03-25T02:16:25.922Z,100778.14
2019-03-25T02:19:01.036Z,100771.72
2019-03-25T02:21:35.972Z,100768.02
2019-03-25T02:24:10.534Z,100765.22
2019-03-25T02:26:45.014Z,100759.24
2019-03-25T02:29:19.704Z,100749.67
2019-03-25T02:31:56.055Z,100750.67
2019-03-25T02:34:32.067Z,100743.91
2019-03-25T02:37:06.588Z,100740.39
2019-03-25T02:39:41.215Z,100747.39
2019-03-25T02:42:15.835Z,100744.44
2019-03-25T02:44:52.071Z,100743.83
2019-03-25T02:47:26.621Z,100740.67
2019-03-25T02:50:03.324Z,100734.25
2019-03-25T02:52:39.720Z,100725.45
2019-03-25T02:55:16.424Z,100719.78
2019-03-25T02:57:52.715Z,100713.34
2019-03-25T03:00:40.845Z,100704.28
2019-03-25T03:03:15.594Z,100698.06
2019-03-25T03:05:50.323Z,100686.67
2019-03-25T03:08:24.825Z,100683.52
2019-03-25T03:10:59.405Z,100667.03
2019-03-25T03:13:36.841Z,100663.02
2019-03-25T03:16:11.747Z,100657.21
2019-03-25T03:18:46.217Z,100649.91
2019-03-25T03:21:21.755Z,100635.84
2019-03-25T03:23:56.222Z,100641.51
2019-03-25T03:26:30.935Z,100636.69
2019-03-25T03:29:05.565Z,100622.91
2019-03-25T03:31:40.389Z,100619.43
2019-03-25T03:34:14.973Z,100624.28
2019-03-25T03:36:51.038Z,100615.87
2019-03-25T03:39:25.666Z,100617.64
2019-03-25T03:42:02.062Z,100620.78
2019-03-25T03:44:36.742Z,100619.38
2019-03-25T03:47:11.389Z,100616.66
2019-03-25T03:49:46.015Z,100615.52
2019-03-25T03:52:21.460Z,100600.98
2019-03-25T03:54:56.204Z,100606.83
2019-03-25T03:57:32.701Z,100599.75
2019-03-25T04:00:08.125Z,100604.69
2019-03-25T04:02:44.672Z,100602.12
2019-03-25T04:05:19.196Z,100608.12
2019-03-25T04:07:53.783Z,100601.28
2019-03-25T04:10:28.552Z,100601.58
2019-03-25T04:13:03.191Z,100597.95
2019-03-25T04:15:37.682Z,100596.39
2019-03-25T04:18:12.433Z,100599.87
2019-03-25T04:20:46.995Z,100603.31
2019-03-25T04:23:23.015Z,100609.06
2019-03-25T04:25:57.926Z,100621.83
2019-03-25T04:28:32.693Z,100609.06
2019-03-25T04:31:07.300Z,100611.77
2019-03-25T04:33:41.865Z,100615.12
2019-03-25T04:36:16.458Z,100619.22
2019-03-25T04:38:52.722Z,100625.06
2019-03-25T04:41:27.637Z,100630.03
2019-03-25T04:44:04.384Z,100618.93
2019-03-25T04:46:38.948Z,100634.30
2019-03-25T04:49:13.509Z,100637.73
2019-03-25T04:51:48.094Z,100643.29
2019-03-25T04:54:24.159Z,100645.19
2019-03-25T04:56:58.788Z,100636.00
2019-03-25T04:59:33.705Z,100633.27
2019-03-25T05:02:08.259Z,100637.48
2019-03-25T05:04:43.009Z,100636.53
2019-03-25T05:07:18.052Z,100638.77
2019-03-25T05:09:52.603Z,100643.43
2019-03-25T05:12:27.008Z,100641.52
2019-03-25T05:15:01.598Z,100642.27
2019-03-25T05:17:36.230Z,100652.42
2019-03-25T05:20:12.268Z,100656.95
2019-03-25T05:22:48.641Z,100660.20
2019-03-25T05:25:23.095Z,100657.13
2019-03-25T05:27:57.816Z,100650.80
2019-03-25T05:30:32.307Z,100649.09
2019-03-25T05:33:06.854Z,100645.73
2019-03-25T05:35:41.463Z,100644.80
2019-03-25T05:38:16.217Z,100646.16
2019-03-25T05:40:52.246Z,100647.66
2019-03-25T05:43:28.823Z,100645.27
2019-03-25T05:46:03.451Z,100645.56
2019-03-25T05:48:37.975Z,100653.05
2019-03-25T05:51:12.593Z,100650.13
2019-03-25T05:53:47.363Z,100654.37
2019-03-25T06:00:14.718Z,100655.62
2019-03-25T06:02:49.991Z,100659.35
2019-03-25T06:05:24.515Z,100657.20
2019-03-25T06:07:59.157Z,100658.23
2019-03-25T06:10:33.612Z,100663.09
2019-03-25T06:13:08.200Z,100663.80
2019-03-25T06:15:42.804Z,100665.41
2019-03-25T06:18:20.405Z,100663.34
2019-03-25T06:20:55.130Z,100667.44
2019-03-25T06:23:29.705Z,100656.44
2019-03-25T06:26:04.601Z,100663.05
2019-03-25T06:28:39.157Z,100657.25
2019-03-25T06:31:14.124Z,100655.73
2019-03-25T06:33:48.700Z,100652.79
2019-03-25T06:36:23.378Z,100652.48
2019-03-25T06:38:58.057Z,100646.79
2019-03-25T06:41:32.514Z,100653.58
2019-03-25T06:44:07.133Z,100657.59
2019-03-25T06:46:42.203Z,100655.25
2019-03-25T06:49:16.714Z,100662.36
2019-03-25T06:51:51.235Z,100642.98
2019-03-25T06:54:25.715Z,100652.49
2019-03-25T06:57:00.699Z,100651.58
2019-03-25T06:59:35.093Z,100661.45
2019-03-25T07:02:09.542Z,100657.74
2019-03-25T07:04:44.412Z,100650.98
2019-03-25T07:07:18.991Z,100652.22
2019-03-25T07:09:55.312Z,100667.27
2019-03-25T07:12:31.580Z,100653.09
2019-03-25T07:15:07.466Z,100658.10
2019-03-25T07:17:42.489Z,100646.31
2019-03-25T07:20:18.964Z,100657.37
2019-03-25T07:22:54.263Z,100643.04
2019-03-25T07:25:29.205Z,100644.23
2019-03-25T07:28:03.780Z,100635.88
2019-03-25T07:30:38.321Z,100654.77
2019-03-25T07:33:12.896Z,100655.08
2019-03-25T07:35:47.513Z,100660.91
2019-03-25T07:38:22.024Z,100651.02
2019-03-25T07:40:56.562Z,100663.92
2019-03-25T07:43:31.183Z,100654.23
2019-03-25T07:46:05.909Z,100654.68
2019-03-25T07:48:41.971Z,100648.98
2019-03-25T07:51:16.588Z,100654.09
2019-03-25T07:53:52.532Z,100649.42
2019-03-25T07:56:27.376Z,100650.24
2019-03-25T07:59:02.112Z,100647.70
2019-03-25T08:01:36.743Z,100644.82
2019-03-25T08:04:11.506Z,100637.73
2019-03-25T08:06:47.743Z,100646.45
2019-03-25T08:09:24.219Z,100646.83
2019-03-25T08:11:58.873Z,100655.20
2019-03-25T08:14:33.684Z,100656.88
2019-03-25T08:17:09.541Z,100658.48
2019-03-25T08:19:44.463Z,100672.52
2019-03-25T08:22:19.074Z,100666.58
2019-03-25T08:24:53.743Z,100675.45
2019-03-25T08:27:28.325Z,100681.31
2019-03-25T08:30:05.048Z,100680.30
2019-03-25T08:32:42.186Z,100683.41
2019-03-25T08:35:17.116Z,100684.83
2019-03-25T08:37:51.760Z,100678.03
2019-03-25T08:40:26.364Z,100671.63
2019-03-25T08:43:02.745Z,100674.06
2019-03-25T08:45:37.485Z,100670.13
2019-03-25T08:48:12.142Z,100674.13
2019-03-25T08:50:47.124Z,100668.55
2019-03-25T08:53:21.827Z,100673.39
2019-03-25T08:55:56.478Z,100673.20
2019-03-25T08:58:32.405Z,100664.80
2019-03-25T09:01:06.999Z,100666.48
2019-03-25T09:03:41.811Z,100667.06
2019-03-25T09:06:16.827Z,100667.27
2019-03-25T09:08:53.588Z,100671.19
2019-03-25T09:11:28.346Z,100671.33
2019-03-25T09:14:04.878Z,100671.37
2019-03-25T09:16:39.535Z,100669.83
2019-03-25T09:19:15.960Z,100668.77
2019-03-25T09:21:50.663Z,100668.79
2019-03-25T09:24:26.644Z,100664.97
2019-03-25T09:27:01.499Z,100670.27
2019-03-25T09:29:36.117Z,100669.09
2019-03-25T09:32:12.528Z,100680.28
2019-03-25T09:34:49.085Z,100679.06
2019-03-25T09:37:24.161Z,100675.01
2019-03-25T09:39:59.095Z,100677.89
2019-03-25T09:42:33.578Z,100679.20
2019-03-25T09:45:11.827Z,100681.50
2019-03-25T09:48:12.073Z,100678.23
2019-03-25T09:50:52.625Z,100681.74
2019-03-25T09:53:39.167Z,100678.95
2019-03-25T09:56:19.303Z,100671.98
2019-03-25T09:59:14.907Z,100672.45
2019-03-25T10:02:11.615Z,100681.24
2019-03-25T10:05:16.320Z,100680.03
2019-03-25T10:08:05.613Z,100686.27
2019-03-25T10:11:07.797Z,100690.77
2019-03-25T10:14:16.773Z,100698.16
2019-03-25T10:16:53.458Z,100693.50
2019-03-25T10:19:28.608Z,100704.93
2019-03-25T10:22:03.448Z,100700.30
2019-03-25T10:24:38.297Z,100695.44
2019-03-25T10:27:13.000Z,100707.44
2019-03-25T10:29:49.010Z,100700.67
2019-03-25T10:32:24.288Z,100711.41
2019-03-25T10:34:59.117Z,100718.27
2019-03-25T10:37:35.621Z,100717.08
2019-03-25T10:40:11.450Z,100723.48
2019-03-25T10:42:46.171Z,100728.13
2019-03-25T10:45:21.512Z,100723.98
2019-03-25T10:47:56.686Z,100728.70
2019-03-25T10:50:31.422Z,100729.04
2019-03-25T10:53:06.305Z,100724.48
2019-03-25T10:55:42.862Z,100727.87
2019-03-25T10:58:17.717Z,100731.22
2019-03-25T11:00:52.444Z,100717.20
2019-03-25T11:03:27.061Z,100730.39
2019-03-25T11:06:01.630Z,100735.33
2019-03-25T11:08:37.630Z,100739.72
2019-03-25T11:11:13.005Z,100730.86
2019-03-25T11:13:47.580Z,100738.61
2019-03-25T11:16:22.563Z,100740.14
2019-03-25T11:18:57.998Z,100727.94
2019-03-25T11:21:32.896Z,100737.83
2019-03-25T11:24:07.463Z,100735.63
2019-03-25T11:26:44.335Z,100732.55
2019-03-25T11:29:19.277Z,100743.27
2019-03-25T11:31:54.349Z,100748.48
2019-03-25T11:34:29.295Z,100744.84
2019-03-25T11:37:03.905Z,100750.75
2019-03-25T11:39:40.669Z,100744.60
2019-03-25T11:42:15.371Z,100753.33
2019-03-25T11:44:50.102Z,100753.33
2019-03-25T11:47:24.730Z,100755.67
2019-03-25T11:49:59.774Z,100771.48
2019-03-25T11:52:34.614Z,100767.62
2019-03-25T11:55:09.762Z,100768.05
2019-03-25T11:57:44.391Z,100768.32
2019-03-25T12:00:19.675Z,100777.45
2019-03-25T12:02:54.278Z,100788.14
2019-03-25T12:05:29.033Z,100795.49
2019-03-25T12:08:03.698Z,100798.91
2019-03-25T12:10:38.619Z,100802.11
2019-03-25T12:13:13.753Z,100809.59
2019-03-25T12:15:48.177Z,100816.91
2019-03-25T12:18:24.206Z,100822.18
2019-03-25T12:20:58.916Z,100822.92
2019-03-25T12:23:33.707Z,100826.39
2019-03-25T12:26:11.385Z,100834.28
2019-03-25T12:28:46.100Z,100836.38
2019-03-25T12:31:21.054Z,100826.66
2019-03-25T12:33:57.117Z,100829.34
2019-03-25T12:36:33.024Z,100821.70
2019-03-25T12:39:09.422Z,100819.71
2019-03-25T12:41:44.163Z,100818.94
2019-03-25T12:44:21.047Z,100823.41
2019-03-25T12:46:57.265Z,100819.52
2019-03-25T12:49:31.936Z,100809.57
2019-03-25T12:52:08.455Z,100826.63
2019-03-25T12:54:43.087Z,100820.49
2019-03-25T12:57:19.547Z,100822.18
2019-03-25T12:59:56.142Z,100818.97
2019-03-25T13:02:31.239Z,100827.66
2019-03-25T13:05:06.241Z,100825.95
2019-03-25T13:07:41.388Z,100827.41
2019-03-25T13:10:18.039Z,100838.10
2019-03-25T13:12:54.239Z,100837.62
2019-03-25T13:15:29.478Z,100843.08
2019-03-25T13:18:04.286Z,100846.94
2019-03-25T13:20:38.872Z,100844.48
2019-03-25T13:23:13.806Z,100853.59
2019-03-25T13:25:48.484Z,100856.81
2019-03-25T13:28:23.469Z,100854.94
2019-03-25T13:30:59.937Z,100867.02
2019-03-25T13:33:34.610Z,100880.59
2019-03-25T13:36:09.633Z,100888.26
2019-03-25T13:38:44.496Z,100892.58
2019-03-25T13:41:20.884Z,100905.00
2019-03-25T13:43:55.670Z,100913.09
2019-03-25T13:46:30.512Z,100910.92
2019-03-25T13:49:05.163Z,100913.67
2019-03-25T13:51:41.804Z,100922.50
2019-03-25T13:54:16.524Z,100916.45
2019-03-25T13:56:51.714Z,100922.20
2019-03-25T13:59:27.529Z,100932.31
2019-03-25T14:02:02.257Z,100932.14
2019-03-25T14:04:36.890Z,100934.44
2019-03-25T14:07:11.591Z,100933.82
2019-03-25T14:09:47.328Z,100938.83
2019-03-25T14:12:23.034Z,100941.14
2019-03-25T14:14:57.563Z,100946.85
2019-03-25T14:17:32.560Z,100947.04
2019-03-25T14:20:09.150Z,100946.55
2019-03-25T14:22:43.850Z,100945.41
2019-03-25T14:25:21.653Z,100952.75
2019-03-25T14:27:59.202Z,100953.11
2019-03-25T14:30:35.630Z,100954.59
2019-03-25T14:33:10.603Z,100966.03
2019-03-25T14:35:45.088Z,100980.23
2019-03-25T14:38:19.761Z,100989.83
2019-03-25T14:40:54.259Z,100995.20
2019-03-25T14:43:29.024Z,100998.28
2019-03-25T14:46:05.410Z,101006.13
2019-03-25T14:48:40.093Z,101015.97
2019-03-25T14:51:14.683Z,101031.13
2019-03-25T14:53:50.999Z,101022.35
2019-03-25T14:56:25.933Z,101032.11
2019-03-25T14:59:00.640Z,101028.52
2019-03-25T15:01:37.906Z,101026.63
2019-03-25T15:04:12.465Z,101023.64
2019-03-25T15:06:48.591Z,101027.42
2019-03-25T15:09:23.228Z,101041.59
2019-03-25T15:11:57.844Z,101051.60
2019-03-25T15:14:33.506Z,101048.94
2019-03-25T15:17:10.114Z,101044.45
2019-03-25T15:19:46.602Z,101039.30
2019-03-25T15:22:21.469Z,101044.31
2019-03-25T15:24:56.195Z,101044.17
2019-03-25T15:27:33.693Z,101047.39
2019-03-25T15:30:09.783Z,101050.14
2019-03-25T15:32:44.315Z,101046.69
2019-03-25T15:35:18.951Z,101053.45
2019-03-25T15:37:53.670Z,101056.72
2019-03-25T15:40:28.328Z,101062.46
2019-03-25T15:43:03.718Z,101057.66
2019-03-25T15:45:38.519Z,101072.66
2019-03-25T15:48:13.365Z,101076.71
2019-03-25T15:50:49.704Z,101079.48
2019-03-25T15:53:24.360Z,101087.30
2019-03-25T15:56:00.825Z,101084.19
2019-03-25T15:58:35.859Z,101093.90
2019-03-25T16:01:12.290Z,101099.29
2019-03-25T16:03:46.837Z,101098.77
2019-03-25T16:06:22.449Z,101100.72
2019-03-25T16:08:58.828Z,101106.52
2019-03-25T16:11:35.843Z,101110.98
2019-03-25T16:14:10.423Z,101116.70
2019-03-25T16:16:44.902Z,101123.83
2019-03-25T16:19:19.528Z,101132.11
2019-03-25T16:21:56.157Z,101133.80
2019-03-25T16:24:31.118Z,101137.66
2019-03-25T16:27:07.967Z,101139.66
2019-03-25T16:29:43.465Z,101141.73
2019-03-25T16:32:18.430Z,101148.52
2019-03-25T16:34:52.962Z,101152.44
2019-03-25T16:37:28.971Z,101153.70
2019-03-25T16:40:03.805Z,101167.27
2019-03-25T16:42:40.198Z,101179.20
2019-03-25T16:45:15.036Z,101188.05
2019-03-25T16:47:51.528Z,101193.71
2019-03-25T16:50:28.150Z,101195.41
2019-03-25T16:53:04.593Z,101195.28
2019-03-25T16:55:39.167Z,101200.16
2019-03-25T16:58:18.677Z,101206.53
2019-03-25T17:00:54.881Z,101204.68
2019-03-25T17:03:29.565Z,101220.44
2019-03-25T17:06:05.669Z,101223.55
2019-03-25T17:08:40.265Z,101228.09
2019-03-25T17:11:15.800Z,101237.69
2019-03-25T17:13:52.299Z,101238.28
2019-03-25T17:16:28.674Z,101242.97
2019-03-25T17:19:03.333Z,101257.05
2019-03-25T17:21:37.988Z,101262.45
2019-03-25T17:24:14.202Z,101269.23
2019-03-25T17:26:50.553Z,101282.80
2019-03-25T17:29:25.903Z,101285.00
2019-03-25T17:32:00.534Z,101292.23
2019-03-25T17:34:35.284Z,101296.55
2019-03-25T17:37:09.948Z,101300.03
2019-03-25T17:39:45.355Z,101304.69
2019-03-25T17:42:20.087Z,101310.39
2019-03-25T17:44:56.281Z,101316.46
2019-03-25T17:47:32.710Z,101315.11
2019-03-25T17:50:07.955Z,101327.47
2019-03-25T17:52:42.941Z,101334.46
2019-03-25T17:55:18.041Z,101337.38
2019-03-25T17:57:52.874Z,101347.22
2019-03-25T18:01:32.089Z,101348.51
2019-03-25T18:04:05.382Z,101359.20
2019-03-25T18:06:40.019Z,101363.28
2019-03-25T18:09:14.734Z,101366.21
2019-03-25T18:11:49.594Z,101379.14
2019-03-25T18:14:28.705Z,101382.50
2019-03-25T18:17:05.170Z,101376.42
2019-03-25T18:19:39.730Z,101384.62
2019-03-25T18:22:14.401Z,101388.81
2019-03-25T18:24:49.764Z,101386.23
2019-03-25T18:27:25.385Z,101391.87
2019-03-25T18:30:01.230Z,101403.88
2019-03-25T18:32:35.895Z,101403.13
2019-03-25T18:35:14.781Z,101406.97
2019-03-25T18:37:49.766Z,101413.07
2019-03-25T18:40:26.399Z,101412.56
2019-03-25T18:43:01.068Z,101414.72
2019-03-25T18:45:37.639Z,101419.06
2019-03-25T18:48:13.247Z,101427.23
2019-03-25T18:50:50.753Z,101436.39
2019-03-25T18:53:27.127Z,101437.28
2019-03-25T18:56:04.524Z,101445.84
2019-03-25T18:58:40.202Z,101459.61
2019-03-25T19:01:17.759Z,101460.42
2019-03-25T19:03:55.619Z,101461.63
2019-03-25T19:06:30.757Z,101467.36
2019-03-25T19:09:07.487Z,101464.76
2019-03-25T19:11:43.848Z,101465.10
2019-03-25T19:14:20.223Z,101470.27
2019-03-25T19:16:55.921Z,101472.48
2019-03-25T19:19:32.264Z,101477.69
2019-03-25T19:22:06.918Z,101483.63
2019-03-25T19:24:41.529Z,101485.59
2019-03-25T19:27:17.619Z,101485.95
2019-03-25T19:29:52.244Z,101492.50
2019-03-25T19:32:27.413Z,101499.86
2019-03-25T19:35:05.071Z,101505.01
2019-03-25T19:37:40.988Z,101515.72
2019-03-25T19:40:19.184Z,101515.70
2019-03-25T19:42:55.438Z,101523.38
2019-03-25T19:45:30.007Z,101524.34
2019-03-25T19:48:04.979Z,101526.28
2019-03-25T19:50:39.701Z,101534.52
2019-03-25T19:53:19.239Z,101529.46
2019-03-25T19:55:51.105Z,101535.48
2019-03-25T19:58:29.399Z,101539.45
2019-03-25T20:01:06.324Z,101543.48
2019-03-25T20:03:42.692Z,101547.88
2019-03-25T20:06:26.110Z,101558.05
2019-03-25T20:08:54.879Z,101566.22
2019-03-25T20:11:29.708Z,101574.50
2019-03-25T20:14:04.874Z,101577.34
2019-03-25T20:16:44.231Z,101579.17
2019-03-25T20:19:20.835Z,101588.98
2019-03-25T20:21:55.839Z,101590.60
2019-03-25T20:24:33.682Z,101597.17
2019-03-25T20:27:08.137Z,101604.94
2019-03-25T20:29:42.667Z,101606.67
2019-03-25T20:32:30.977Z,101617.09
2019-03-25T20:34:54.519Z,101618.00
2019-03-25T20:37:29.225Z,101624.45
2019-03-25T20:40:06.595Z,101623.77
2019-03-25T20:42:41.300Z,101633.13
2019-03-25T20:45:18.597Z,101632.80
2019-03-25T20:47:53.537Z,101642.94
2019-03-25T20:50:30.065Z,101642.22
2019-03-25T20:53:05.091Z,101643.97
2019-03-25T20:55:41.694Z,101640.17
2019-03-25T20:58:17.911Z,101644.98
2019-03-25T21:00:57.611Z,101647.15
2019-03-25T21:03:32.351Z,101643.39
2019-03-25T21:06:08.797Z,101649.41
2019-03-25T21:08:43.544Z,101655.41
2019-03-25T21:11:18.171Z,101662.27
2019-03-25T21:13:53.157Z,101662.73
2019-03-25T21:16:27.692Z,101670.88
2019-03-25T21:19:04.103Z,101678.19
2019-03-25T21:21:38.629Z,101684.22
2019-03-25T21:24:13.117Z,101690.23
2019-03-25T21:26:48.287Z,101690.66
2019-03-25T21:29:22.826Z,101690.25
2019-03-25T21:31:57.963Z,101698.81
2019-03-25T21:34:32.691Z,101699.67
2019-03-25T21:37:07.675Z,101706.98
2019-03-25T21:39:42.148Z,101719.80
2019-03-25T21:42:16.622Z,101716.39
2019-03-25T21:44:53.106Z,101720.69
2019-03-25T21:47:27.886Z,101719.85
2019-03-25T21:50:02.613Z,101719.42
2019-03-25T21:52:38.424Z,101721.58
2019-03-25T21:55:12.860Z,101730.13
2019-03-25T21:57:49.312Z,101732.28
2019-03-25T22:00:24.092Z,101731.84
2019-03-25T22:03:11.403Z,101736.55
2019-03-25T22:05:35.362Z,101742.11
2019-03-25T22:08:09.998Z,101741.25
2019-03-25T22:10:46.392Z,101745.52
2019-03-25T22:13:20.873Z,101746.81
2019-03-25T22:15:55.512Z,101751.11
2019-03-25T22:18:30.845Z,101756.21
2019-03-25T22:21:05.869Z,101755.80
2019-03-25T22:23:40.460Z,101756.20
2019-03-25T22:26:14.924Z,101751.11
2019-03-25T22:28:51.222Z,101751.09
2019-03-25T22:31:26.134Z,101754.95
2019-03-25T22:34:00.690Z,101757.07
2019-03-25T22:36:35.077Z,101767.33
2019-03-25T22:39:10.406Z,101771.59
2019-03-25T22:41:45.149Z,101775.87
2019-03-25T22:44:19.767Z,101783.12
2019-03-25T22:46:54.382Z,101785.70
2019-03-25T22:49:29.233Z,101789.95
2019-03-25T22:52:03.960Z,101788.25
2019-03-25T22:54:38.406Z,101794.23
2019-03-25T22:57:12.910Z,101790.39
2019-03-25T22:59:47.534Z,101799.77
2019-03-25T23:02:22.472Z,101799.33
2019-03-25T23:04:58.631Z,101796.77
2019-03-25T23:07:33.984Z,101806.58
2019-03-25T23:10:10.369Z,101815.98
2019-03-25T23:12:44.969Z,101817.27
2019-03-25T23:15:19.633Z,101820.67
2019-03-25T23:17:54.426Z,101820.64
2019-03-25T23:20:29.005Z,101817.67
2019-03-25T23:23:03.693Z,101806.98
2019-03-25T23:25:38.304Z,101812.08
2019-03-25T23:28:12.952Z,101810.36
2019-03-25T23:30:49.498Z,101815.92
2019-03-25T23:33:25.867Z,101815.92
2019-03-25T23:36:00.525Z,101812.48
2019-03-25T23:38:36.280Z,101818.03
2019-03-25T23:41:10.915Z,101816.75
2019-03-25T23:43:45.534Z,101813.31
2019-03-25T23:46:20.047Z,101818.88
2019-03-25T23:48:54.856Z,101815.88
2019-03-25T23:51:29.748Z,101809.91
2019-03-25T23:54:15.993Z,101814.63
2019-03-25T23:56:50.618Z,101813.36
2019-03-25T23:59:25.479Z,101817.67
